createdAt,value
2022-09-03T00:01:51.975Z,98252.44
2022-09-03T00:04:37.766Z,98248.69
2022-09-03T00:07:12.014Z,98254.44
2022-09-03T00:10:03.776Z,98256.47
2022-09-03T00:12:37.018Z,98252.78
2022-09-03T00:15:21.843Z,98256.22
2022-09-03T00:18:10.767Z,98252.69
2022-09-03T00:20:44.948Z,98253.47
2022-09-03T00:23:38.777Z,98248.88
2022-09-03T00:26:08.230Z,98255.84
2022-09-03T00:28:58.829Z,98260.81
2022-09-03T00:31:50.817Z,98271.47
2022-09-03T00:34:29.247Z,98271.88
2022-09-03T00:37:02.913Z,98267.91
2022-09-03T00:39:30.543Z,98281.50
2022-09-03T00:42:25.812Z,98274.22
2022-09-03T00:45:01.699Z,98280.59
2022-09-03T00:47:34.772Z,98277.84
2022-09-03T00:50:05.395Z,98274.53
2022-09-03T00:52:52.752Z,98272.44
2022-09-03T00:55:32.290Z,98265.97
2022-09-03T00:58:27.794Z,98263.31
2022-09-03T01:00:54.491Z,98262.84
2022-09-03T01:03:57.747Z,98266.75
2022-09-03T01:06:54.877Z,98253.75
2022-09-03T01:09:27.762Z,98254.97
2022-09-03T01:12:27.737Z,98261.13
2022-09-03T01:15:14.746Z,98264.81
2022-09-03T01:17:50.741Z,98277.56
2022-09-03T01:20:25.212Z,98275.28
2022-09-03T01:23:09.765Z,98282.22
2022-09-03T01:26:18.186Z,98291.44
2022-09-03T01:29:03.753Z,98291.44
2022-09-03T01:31:57.934Z,98293.69
2022-09-03T01:35:03.762Z,98302.06
2022-09-03T01:37:59.650Z,98299.41
2022-09-03T01:41:30.748Z,98299.81
2022-09-03T01:44:18.906Z,98288.47
2022-09-03T01:46:50.221Z,98291.69
2022-09-03T01:49:30.740Z,98285.41
2022-09-03T01:52:17.747Z,98287.91
2022-09-03T01:55:14.747Z,98286.84
2022-09-03T01:57:56.757Z,98290.09
2022-09-03T02:00:25.300Z,98296.84
2022-09-03T02:02:59.753Z,98297.22
2022-09-03T02:05:34.775Z,98307.09
2022-09-03T02:08:09.501Z,98307.56
2022-09-03T02:10:50.732Z,98309.69
2022-09-03T02:13:32.753Z,98314.34
2022-09-03T02:16:07.349Z,98317.03
2022-09-03T02:18:47.926Z,98315.22
2022-09-03T02:21:21.341Z,98320.56
2022-09-03T02:23:55.741Z,98311.69
2022-09-03T02:26:24.478Z,98320.91
2022-09-03T02:28:59.749Z,98327.94
2022-09-03T02:31:33.908Z,98326.66
2022-09-03T02:34:06.875Z,98324.34
2022-09-03T02:36:47.727Z,98320.56
2022-09-03T02:39:15.957Z,98313.09
2022-09-03T02:41:49.753Z,98310.69
2022-09-03T02:44:26.317Z,98302.03
2022-09-03T02:47:11.944Z,98308.19
2022-09-03T02:49:38.801Z,98298.91
2022-09-03T02:52:18.906Z,98305.63
2022-09-03T02:54:45.980Z,98302.66
2022-09-03T02:57:15.479Z,98309.56
2022-09-03T02:59:51.735Z,98302.75
2022-09-03T03:02:24.822Z,98301.56
2022-09-03T03:04:51.645Z,98308.56
2022-09-03T03:07:18.287Z,98298.88
2022-09-03T03:09:52.711Z,98291.91
2022-09-03T03:12:26.735Z,98288.41
2022-09-03T03:14:59.739Z,98284.34
2022-09-03T03:17:26.453Z,98299.75
2022-09-03T03:19:59.737Z,98307.38
2022-09-03T03:22:32.695Z,98311.53
2022-09-03T03:24:59.429Z,98316.13
2022-09-03T03:27:32.711Z,98321.94
2022-09-03T03:29:59.432Z,98316.50
2022-09-03T03:32:33.720Z,98315.66
2022-09-03T03:35:07.681Z,98303.97
2022-09-03T03:37:41.743Z,98307.00
2022-09-03T03:40:09.016Z,98306.81
2022-09-03T03:42:42.746Z,98309.38
2022-09-03T03:45:16.711Z,98314.25
2022-09-03T03:47:49.712Z,98319.19
2022-09-03T03:50:23.725Z,98315.25
2022-09-03T03:52:50.456Z,98321.97
2022-09-03T03:55:23.704Z,98330.16
2022-09-03T03:57:53.909Z,98345.88
2022-09-03T04:00:26.708Z,98344.41
2022-09-03T04:02:53.621Z,98341.56
2022-09-03T04:05:26.722Z,98339.25
2022-09-03T04:07:53.509Z,98344.56
2022-09-03T04:10:20.238Z,98350.28
2022-09-03T04:12:53.758Z,98350.81
2022-09-03T04:15:20.503Z,98349.81
2022-09-03T04:17:53.718Z,98346.50
2022-09-03T04:20:20.413Z,98341.50
2022-09-03T04:22:53.724Z,98345.84
2022-09-03T04:25:20.433Z,98345.22
2022-09-03T04:27:53.699Z,98344.47
2022-09-03T04:30:27.805Z,98347.69
2022-09-03T04:33:07.698Z,98344.47
2022-09-03T04:35:55.720Z,98341.63
2022-09-03T04:38:29.717Z,98342.47
2022-09-03T04:40:56.539Z,98343.75
2022-09-03T04:43:29.777Z,98341.25
2022-09-03T04:46:06.787Z,98363.00
2022-09-03T04:48:42.865Z,98371.53
2022-09-03T04:51:15.433Z,98367.00
2022-09-03T04:53:53.688Z,98380.19
2022-09-03T04:56:23.061Z,98371.00
2022-09-03T04:59:01.770Z,98369.97
2022-09-03T05:01:30.528Z,98372.66
2022-09-03T05:03:58.151Z,98368.78
2022-09-03T05:06:32.708Z,98365.13
2022-09-03T05:09:00.134Z,98357.41
2022-09-03T05:11:34.691Z,98366.53
2022-09-03T05:14:07.712Z,98369.47
2022-09-03T05:16:34.469Z,98370.31
2022-09-03T05:19:07.697Z,98367.91
2022-09-03T05:21:38.162Z,98375.75
2022-09-03T05:24:11.690Z,98367.09
2022-09-03T05:26:39.531Z,98365.56
2022-09-03T05:29:14.704Z,98367.91
2022-09-03T05:31:47.864Z,98355.84
2022-09-03T05:34:27.700Z,98357.84
2022-09-03T05:36:55.259Z,98359.03
2022-09-03T05:39:28.725Z,98363.56
2022-09-03T05:41:58.183Z,98370.91
2022-09-03T05:44:31.710Z,98375.94
2022-09-03T05:46:58.380Z,98374.28
2022-09-03T05:49:31.845Z,98374.13
2022-09-03T05:51:58.670Z,98365.81
2022-09-03T05:54:31.687Z,98365.34
2022-09-03T05:56:58.326Z,98372.78
2022-09-03T05:59:31.693Z,98369.59
2022-09-03T06:02:04.815Z,98365.56
2022-09-03T06:04:37.876Z,98360.41
2022-09-03T06:07:04.766Z,98351.25
2022-09-03T06:09:37.674Z,98352.63
2022-09-03T06:12:05.703Z,98359.91
2022-09-03T06:14:38.691Z,98354.16
2022-09-03T06:17:05.307Z,98364.88
2022-09-03T06:19:38.702Z,98357.97
2022-09-03T06:22:11.704Z,98355.94
2022-09-03T06:24:38.651Z,98350.78
2022-09-03T06:27:05.547Z,98351.41
2022-09-03T06:29:38.702Z,98354.84
2022-09-03T06:32:26.685Z,98364.69
2022-09-03T06:34:59.664Z,98355.81
2022-09-03T06:37:26.431Z,98353.97
2022-09-03T06:40:00.735Z,98355.06
2022-09-03T06:42:28.980Z,98354.91
2022-09-03T06:45:02.875Z,98350.66
2022-09-03T06:47:29.631Z,98352.03
2022-09-03T06:50:02.665Z,98361.69
2022-09-03T06:52:30.020Z,98361.06
2022-09-03T06:55:03.672Z,98347.09
2022-09-03T06:57:30.680Z,98349.41
2022-09-03T07:00:03.682Z,98342.03
2022-09-03T07:02:30.840Z,98349.28
2022-09-03T07:05:03.693Z,98345.59
2022-09-03T07:07:31.449Z,98340.63
2022-09-03T07:10:04.663Z,98349.91
2022-09-03T07:12:37.628Z,98353.44
2022-09-03T07:15:10.677Z,98346.44
2022-09-03T07:17:45.886Z,98354.91
2022-09-03T07:20:19.677Z,98355.66
2022-09-03T07:22:46.286Z,98353.69
2022-09-03T07:25:19.715Z,98350.22
2022-09-03T07:27:53.664Z,98353.69
2022-09-03T07:30:20.458Z,98356.34
2022-09-03T07:32:53.690Z,98349.22
2022-09-03T07:35:33.867Z,98350.56
2022-09-03T07:38:06.710Z,98352.47
2022-09-03T07:40:33.510Z,98356.22
2022-09-03T07:43:09.707Z,98357.47
2022-09-03T07:45:37.473Z,98357.56
2022-09-03T07:48:04.140Z,98349.75
2022-09-03T07:50:40.696Z,98360.53
2022-09-03T07:53:08.242Z,98357.03
2022-09-03T07:55:41.687Z,98362.22
2022-09-03T07:58:08.406Z,98352.94
2022-09-03T08:00:41.690Z,98361.44
2022-09-03T08:03:08.950Z,98357.97
2022-09-03T08:05:43.652Z,98367.38
2022-09-03T08:08:17.636Z,98365.13
2022-09-03T08:10:51.689Z,98365.38
2022-09-03T08:13:18.431Z,98357.59
2022-09-03T08:16:00.692Z,98353.47
2022-09-03T08:18:37.306Z,98359.47
2022-09-03T08:21:22.649Z,98349.38
2022-09-03T08:23:52.034Z,98352.88
2022-09-03T08:26:28.651Z,98349.38
2022-09-03T08:28:55.794Z,98351.03
2022-09-03T08:31:30.703Z,98347.94
2022-09-03T08:34:13.641Z,98352.06
2022-09-03T08:36:43.318Z,98358.28
2022-09-03T08:39:17.767Z,98362.63
2022-09-03T08:41:50.804Z,98357.91
2022-09-03T08:44:28.263Z,98369.69
2022-09-03T08:47:20.677Z,98368.91
2022-09-03T08:49:59.848Z,98360.03
2022-09-03T08:52:39.679Z,98352.00
2022-09-03T08:55:25.032Z,98349.94
2022-09-03T08:58:13.670Z,98344.63
2022-09-03T09:01:10.642Z,98340.31
2022-09-03T09:03:48.735Z,98341.16
2022-09-03T09:06:19.014Z,98331.88
2022-09-03T09:08:52.846Z,98337.66
2022-09-03T09:11:47.122Z,98337.88
2022-09-03T09:14:31.642Z,98340.38
2022-09-03T09:17:17.088Z,98336.84
2022-09-03T09:19:56.653Z,98338.50
2022-09-03T09:22:35.317Z,98341.00
2022-09-03T09:25:15.633Z,98345.53
2022-09-03T09:27:51.797Z,98338.53
2022-09-03T09:30:26.652Z,98338.91
2022-09-03T09:33:00.736Z,98344.31
2022-09-03T09:35:33.650Z,98338.91
2022-09-03T09:38:06.649Z,98339.94
2022-09-03T09:40:45.120Z,98346.34
2022-09-03T09:43:20.647Z,98338.91
2022-09-03T09:45:49.527Z,98339.94
2022-09-03T09:48:37.642Z,98339.53
2022-09-03T09:51:17.642Z,98345.06
2022-09-03T09:53:45.106Z,98351.25
2022-09-03T09:56:32.712Z,98357.06
2022-09-03T09:59:07.707Z,98349.59
2022-09-03T10:01:45.717Z,98350.41
2022-09-03T10:04:35.774Z,98346.69
2022-09-03T10:07:21.495Z,98339.59
2022-09-03T10:10:06.633Z,98337.94
2022-09-03T10:12:37.880Z,98341.03
2022-09-03T10:15:50.686Z,98339.38
2022-09-03T10:18:49.669Z,98338.75
2022-09-03T10:21:27.641Z,98333.34
2022-09-03T10:24:32.702Z,98330.78
2022-09-03T10:27:05.661Z,98334.91
2022-09-03T10:29:32.997Z,98336.69
2022-09-03T10:32:39.023Z,98331.06
2022-09-03T10:35:47.064Z,98332.91
2022-09-03T10:38:27.706Z,98332.63
2022-09-03T10:41:31.381Z,98332.19
2022-09-03T10:44:41.621Z,98335.69
2022-09-03T10:47:20.442Z,98332.75
2022-09-03T10:50:29.637Z,98336.31
2022-09-03T10:53:22.010Z,98331.88
2022-09-03T10:56:19.629Z,98334.19
2022-09-03T10:59:11.659Z,98333.38
2022-09-03T11:02:01.353Z,98334.28
2022-09-03T11:04:53.656Z,98329.28
2022-09-03T11:07:36.641Z,98332.75
2022-09-03T11:10:30.737Z,98322.41
2022-09-03T11:13:04.816Z,98330.88
2022-09-03T11:15:33.906Z,98325.59
2022-09-03T11:18:21.636Z,98324.19
2022-09-03T11:20:50.977Z,98322.56
2022-09-03T11:23:26.662Z,98326.59
2022-09-03T11:26:19.641Z,98321.34
2022-09-03T11:29:04.999Z,98317.50
2022-09-03T11:32:04.638Z,98313.53
2022-09-03T11:34:47.547Z,98318.03
2022-09-03T11:37:27.606Z,98312.94
2022-09-03T11:40:23.767Z,98318.75
2022-09-03T11:42:56.914Z,98316.22
2022-09-03T11:45:44.391Z,98318.75
2022-09-03T11:48:26.647Z,98313.16
2022-09-03T11:51:01.657Z,98303.28
2022-09-03T11:53:35.890Z,98305.38
2022-09-03T11:56:12.615Z,98306.25
2022-09-03T11:58:42.951Z,98298.84
2022-09-03T12:01:21.631Z,98300.50
2022-09-03T12:03:59.720Z,98293.53
2022-09-03T12:06:49.017Z,98293.78
2022-09-03T12:09:40.365Z,98291.38
2022-09-03T12:12:22.790Z,98286.22
2022-09-03T12:15:02.566Z,98280.66
2022-09-03T12:17:50.634Z,98281.00
2022-09-03T12:20:23.592Z,98281.25
2022-09-03T12:22:56.620Z,98283.97
2022-09-03T12:25:29.625Z,98287.31
2022-09-03T12:28:02.777Z,98281.66
2022-09-03T12:30:37.714Z,98283.31
2022-09-03T12:33:15.798Z,98285.00
2022-09-03T12:36:08.791Z,98280.22
2022-09-03T12:39:00.729Z,98278.03
2022-09-03T12:41:34.676Z,98277.44
2022-09-03T12:44:03.475Z,98275.91
2022-09-03T12:46:34.184Z,98268.38
2022-09-03T12:52:17.626Z,98256.78
2022-09-03T12:55:03.619Z,98259.50
2022-09-03T12:57:35.451Z,98259.81
2022-09-03T13:00:14.681Z,98259.56
2022-09-03T13:02:51.535Z,98259.72
2022-09-03T13:05:32.613Z,98256.22
2022-09-03T13:08:04.069Z,98257.03
2022-09-03T13:10:44.632Z,98258.84
2022-09-03T13:13:37.099Z,98248.22
2022-09-03T13:16:16.684Z,98245.38
2022-09-03T13:19:19.708Z,98234.00
2022-09-03T13:22:07.646Z,98236.13
2022-09-03T13:25:08.625Z,98229.97
2022-09-03T13:28:04.255Z,98240.25
2022-09-03T13:30:57.664Z,98230.03
2022-09-03T13:33:55.809Z,98236.91
2022-09-03T13:37:05.611Z,98235.91
2022-09-03T13:39:52.544Z,98227.06
2022-09-03T13:42:37.601Z,98228.19
2022-09-03T13:45:25.924Z,98225.06
2022-09-03T13:48:24.628Z,98224.88
2022-09-03T13:51:15.646Z,98224.19
2022-09-03T13:53:45.214Z,98225.84
2022-09-03T13:57:04.601Z,98216.56
2022-09-03T13:59:43.785Z,98218.50
2022-09-03T14:02:24.631Z,98211.19
2022-09-03T14:05:11.610Z,98207.84
2022-09-03T14:08:14.625Z,98204.13
2022-09-03T14:10:59.541Z,98196.22
2022-09-03T14:13:46.633Z,98197.28
2022-09-03T14:16:48.541Z,98195.72
2022-09-03T14:19:38.598Z,98193.31
2022-09-03T14:22:10.214Z,98198.56
2022-09-03T14:25:18.611Z,98195.91
2022-09-03T14:27:45.544Z,98189.78
2022-09-03T14:30:40.625Z,98191.19
2022-09-03T14:33:43.732Z,98192.00
2022-09-03T14:36:36.627Z,98193.53
2022-09-03T14:39:18.148Z,98190.84
2022-09-03T14:42:09.611Z,98185.94
2022-09-03T14:44:45.564Z,98186.56
2022-09-03T14:47:59.618Z,98182.16
2022-09-03T14:50:48.996Z,98177.88
2022-09-03T14:53:37.337Z,98190.72
2022-09-03T14:56:47.610Z,98193.19
2022-09-03T14:59:23.404Z,98195.81
2022-09-03T15:02:19.853Z,98197.03
2022-09-03T15:05:11.762Z,98195.63
2022-09-03T15:07:55.593Z,98189.28
2022-09-03T15:11:00.817Z,98192.63
2022-09-03T15:13:39.606Z,98191.31
2022-09-03T15:16:37.635Z,98184.59
2022-09-03T15:19:26.729Z,98190.06
2022-09-03T15:22:32.599Z,98182.19
2022-09-03T15:25:29.615Z,98177.69
2022-09-03T15:28:23.630Z,98181.63
2022-09-03T15:30:54.663Z,98187.34
2022-09-03T15:33:50.606Z,98183.06
2022-09-03T15:36:22.379Z,98179.53
2022-09-03T15:39:13.671Z,98184.84
2022-09-03T15:41:47.084Z,98173.34
2022-09-03T15:44:27.607Z,98180.88
2022-09-03T15:47:05.318Z,98171.28
2022-09-03T15:50:11.594Z,98165.44
2022-09-03T15:52:47.533Z,98166.16
2022-09-03T15:55:37.607Z,98167.59
2022-09-03T15:58:11.678Z,98164.81
2022-09-03T16:01:09.702Z,98167.72
2022-09-03T16:04:33.968Z,98174.94
2022-09-03T16:07:42.897Z,98171.06
2022-09-03T16:10:26.253Z,98176.13
2022-09-03T16:13:12.887Z,98173.91
2022-09-03T16:16:07.690Z,98173.47
2022-09-03T16:18:43.848Z,98172.38
2022-09-03T16:21:32.588Z,98170.88
2022-09-03T16:24:37.595Z,98176.78
2022-09-03T16:27:23.616Z,98178.56
2022-09-03T16:30:08.606Z,98188.91
2022-09-03T16:32:53.625Z,98189.88
2022-09-03T16:35:50.621Z,98196.81
2022-09-03T16:38:47.517Z,98198.47
2022-09-03T16:41:59.618Z,98198.94
2022-09-03T16:44:50.829Z,98205.50
2022-09-03T16:48:04.600Z,98216.19
2022-09-03T16:51:22.584Z,98227.34
2022-09-03T16:54:33.604Z,98218.75
2022-09-03T16:57:21.704Z,98219.34
2022-09-03T17:00:03.840Z,98219.44
2022-09-03T17:02:57.588Z,98210.03
2022-09-03T17:05:27.394Z,98220.13
2022-09-03T17:08:03.614Z,98219.97
2022-09-03T17:10:44.991Z,98212.00
2022-09-03T17:13:26.693Z,98210.78
2022-09-03T17:16:04.641Z,98206.91
2022-09-03T17:18:36.117Z,98200.88
2022-09-03T17:21:30.592Z,98194.06
2022-09-03T17:24:10.053Z,98198.06
2022-09-03T17:26:45.601Z,98202.25
2022-09-03T17:29:43.480Z,98217.25
2022-09-03T17:33:10.662Z,98210.69
2022-09-03T17:36:21.633Z,98207.84
2022-09-03T17:38:51.171Z,98207.72
2022-09-03T17:41:38.592Z,98212.50
2022-09-03T17:44:25.604Z,98212.16
2022-09-03T17:47:11.622Z,98212.81
2022-09-03T17:49:49.207Z,98217.63
2022-09-03T17:52:45.575Z,98217.25
2022-09-03T17:55:28.604Z,98225.00
2022-09-03T17:58:07.360Z,98219.81
2022-09-03T18:00:51.586Z,98231.84
2022-09-03T18:03:48.663Z,98229.63
2022-09-03T18:06:32.579Z,98229.84
2022-09-03T18:09:17.721Z,98236.53
2022-09-03T18:11:57.579Z,98248.75
2022-09-03T18:14:55.617Z,98254.34
2022-09-03T18:17:41.567Z,98265.13
2022-09-03T18:20:36.651Z,98273.44
2022-09-03T18:23:47.984Z,98288.81
2022-09-03T18:26:51.588Z,98304.19
2022-09-03T18:29:57.070Z,98326.88
2022-09-03T18:32:42.600Z,98335.47
2022-09-03T18:35:34.614Z,98344.22
2022-09-03T18:38:22.609Z,98350.69
2022-09-03T18:41:40.585Z,98364.78
2022-09-03T18:45:06.614Z,98371.06
2022-09-03T18:48:20.760Z,98394.09
2022-09-03T18:51:22.642Z,98405.38
2022-09-03T18:54:26.660Z,98428.25
2022-09-03T18:57:13.067Z,98446.09
2022-09-03T19:00:33.617Z,98451.97
2022-09-03T19:03:25.679Z,98461.38
2022-09-03T19:07:10.586Z,98479.06
2022-09-03T19:10:18.577Z,98477.59
2022-09-03T19:13:24.889Z,98490.84
2022-09-03T19:16:29.628Z,98499.19
2022-09-03T19:19:22.708Z,98513.50
2022-09-03T19:22:20.570Z,98528.81
2022-09-03T19:25:12.520Z,98531.91
2022-09-03T19:28:22.589Z,98530.88
2022-09-03T19:31:32.642Z,98550.91
2022-09-03T19:34:46.651Z,98572.28
2022-09-03T19:37:46.648Z,98594.72
2022-09-03T19:41:00.600Z,98601.22
2022-09-03T19:44:22.881Z,98614.69
2022-09-03T19:47:23.587Z,98632.28
2022-09-03T19:50:14.969Z,98643.09
2022-09-03T19:53:23.895Z,98655.75
2022-09-03T19:56:14.854Z,98664.56
2022-09-03T19:59:11.606Z,98685.94
2022-09-03T20:01:57.054Z,98693.66
2022-09-03T20:04:58.604Z,98685.28
2022-09-03T20:07:44.304Z,98684.63
2022-09-03T20:10:30.553Z,98687.50
2022-09-03T20:13:09.715Z,98694.13
2022-09-03T20:15:57.593Z,98693.31
2022-09-03T20:18:54.659Z,98690.63
2022-09-03T20:21:56.558Z,98698.38
2022-09-03T20:25:11.563Z,98695.69
2022-09-03T20:28:38.563Z,98688.22
2022-09-03T20:31:47.568Z,98681.75
2022-09-03T20:35:08.549Z,98678.72
2022-09-03T20:38:13.743Z,98675.78
2022-09-03T20:41:19.550Z,98663.25
2022-09-03T20:44:31.758Z,98675.91
2022-09-03T20:47:28.024Z,98670.78
2022-09-03T20:50:47.552Z,98687.78
2022-09-03T20:54:16.546Z,98682.16
2022-09-03T20:57:24.854Z,98679.44
2022-09-03T21:00:25.539Z,98666.28
2022-09-03T21:03:32.806Z,98676.25
2022-09-03T21:06:35.553Z,98676.13
2022-09-03T21:09:35.550Z,98669.97
2022-09-03T21:12:44.763Z,98658.16
2022-09-03T21:15:54.495Z,98664.84
2022-09-03T21:18:46.436Z,98656.84
2022-09-03T21:21:55.538Z,98655.16
2022-09-03T21:25:10.742Z,98656.84
2022-09-03T21:28:09.717Z,98652.69
2022-09-03T21:31:06.590Z,98656.00
2022-09-03T21:34:11.521Z,98659.16
2022-09-03T21:37:04.119Z,98665.19
2022-09-03T21:40:02.576Z,98674.78
2022-09-03T21:43:07.525Z,98664.88
2022-09-03T21:46:21.562Z,98667.09
2022-09-03T21:49:12.239Z,98655.72
2022-09-03T21:52:17.529Z,98669.41
2022-09-03T21:55:33.590Z,98672.09
2022-09-03T21:58:54.544Z,98663.22
2022-09-03T22:01:54.533Z,98662.59
2022-09-03T22:04:41.507Z,98669.78
2022-09-03T22:07:53.829Z,98670.63
2022-09-03T22:10:59.680Z,98669.16
2022-09-03T22:14:04.442Z,98678.41
2022-09-03T22:17:02.596Z,98681.09
2022-09-03T22:19:50.312Z,98689.19
2022-09-03T22:22:55.538Z,98697.91
2022-09-03T22:25:59.024Z,98696.69
2022-09-03T22:29:08.542Z,98697.69
2022-09-03T22:32:26.438Z,98705.13
2022-09-03T22:35:22.537Z,98702.44
2022-09-03T22:39:00.683Z,98695.00
2022-09-03T22:42:04.586Z,98694.00
2022-09-03T22:45:06.525Z,98696.88
2022-09-03T22:48:14.776Z,98698.28
2022-09-03T22:51:09.542Z,98702.38
2022-09-03T22:54:14.568Z,98699.69
2022-09-03T22:57:02.996Z,98708.75
2022-09-03T23:00:06.670Z,98712.28
2022-09-03T23:03:07.468Z,98715.97
2022-09-03T23:06:10.677Z,98717.56
2022-09-03T23:09:03.423Z,98715.09
2022-09-03T23:12:26.514Z,98714.84
2022-09-03T23:15:26.521Z,98708.81
2022-09-03T23:18:17.877Z,98715.03
2022-09-03T23:21:28.535Z,98715.66
2022-09-03T23:24:27.498Z,98718.72
2022-09-03T23:27:31.563Z,98719.94
2022-09-03T23:30:25.725Z,98705.44
2022-09-03T23:33:19.499Z,98706.44
2022-09-03T23:40:18.373Z,98702.94
2022-09-03T23:43:20.520Z,98693.44
2022-09-03T23:46:20.518Z,98693.78
2022-09-03T23:49:40.504Z,98695.03
2022-09-03T23:53:05.559Z,98691.25
2022-09-03T23:56:15.775Z,98692.84
2022-09-03T23:59:15.498Z,98707.88
